<?xml version="1.0" encoding="UTF-8" standalone="no" ?>
<gpx xmlns="http://www.topografix.com/GPX/1/1" xmlns:xsi="http://www.w3.org/2001/XMLSchema-instance" xsi:schemaLocation="http://www.topografix.com/GPX/1/1 http://www.topografix.com/GPX/1/1/gpx.xsd" version="1.1" creator="VisuGPX - https://www.visugpx.com">
  <metadata>
    <name>Puy de la tourte</name>
    <desc><![CDATA[par les crêtes]]></desc>
  </metadata>
  <trk>
    <name><![CDATA[Puy de la tourte]]></name>
    <desc><![CDATA[Par les crêtes]]></desc>
    <trkseg>
      <trkpt lat="45.1311" lon="2.6528">
        <ele>1033</ele>
        <time>2010-08-11T07:18:43Z</time>
      </trkpt>
      <trkpt lat="45.1311" lon="2.6528">
        <ele>1033</ele>
        <time>2010-08-11T07:18:43Z</time>
      </trkpt>
      <trkpt lat="45.1311" lon="2.6528">
        <ele>1033</ele>
        <time>2010-08-11T07:18:49Z</time>
      </trkpt>
      <trkpt lat="45.13094" lon="2.65261">
        <ele>1103</ele>
        <time>2010-08-11T07:23:27Z</time>
      </trkpt>
      <trkpt lat="45.13094" lon="2.65261">
        <ele>1103</ele>
        <time>2010-08-11T07:23:27Z</time>
      </trkpt>
      <trkpt lat="45.13094" lon="2.65261">
        <ele>1103</ele>
        <time>2010-08-11T07:23:27Z</time>
      </trkpt>
      <trkpt lat="45.13094" lon="2.65261">
        <ele>1103</ele>
        <time>2010-08-11T07:23:31Z</time>
      </trkpt>
      <trkpt lat="45.1305" lon="2.65243">
        <ele>1116</ele>
        <time>2010-08-11T07:25:11Z</time>
      </trkpt>
      <trkpt lat="45.1305" lon="2.65243">
        <ele>1116</ele>
        <time>2010-08-11T07:25:11Z</time>
      </trkpt>
      <trkpt lat="45.1305" lon="2.65243">
        <ele>1116</ele>
        <time>2010-08-11T07:25:11Z</time>
      </trkpt>
      <trkpt lat="45.1305" lon="2.65243">
        <ele>1116</ele>
        <time>2010-08-11T07:25:36Z</time>
      </trkpt>
      <trkpt lat="45.13029" lon="2.65249">
        <ele>1109</ele>
        <time>2010-08-11T07:25:41Z</time>
      </trkpt>
      <trkpt lat="45.13029" lon="2.65249">
        <ele>1109</ele>
        <time>2010-08-11T07:25:42Z</time>
      </trkpt>
      <trkpt lat="45.13023" lon="2.65268">
        <ele>1109</ele>
        <time>2010-08-11T07:25:55Z</time>
      </trkpt>
      <trkpt lat="45.13016" lon="2.65287">
        <ele>1106</ele>
        <time>2010-08-11T07:26:08Z</time>
      </trkpt>
      <trkpt lat="45.13008" lon="2.65295">
        <ele>1108</ele>
        <time>2010-08-11T07:26:19Z</time>
      </trkpt>
      <trkpt lat="45.12999" lon="2.65304">
        <ele>1107</ele>
        <time>2010-08-11T07:26:32Z</time>
      </trkpt>
      <trkpt lat="45.12992" lon="2.65314">
        <ele>1107</ele>
        <time>2010-08-11T07:26:44Z</time>
      </trkpt>
      <trkpt lat="45.12985" lon="2.65331">
        <ele>1110</ele>
        <time>2010-08-11T07:26:59Z</time>
      </trkpt>
      <trkpt lat="45.1298" lon="2.65342">
        <ele>1114</ele>
        <time>2010-08-11T07:27:10Z</time>
      </trkpt>
      <trkpt lat="45.12971" lon="2.65357">
        <ele>1116</ele>
        <time>2010-08-11T07:27:24Z</time>
      </trkpt>
      <trkpt lat="45.12966" lon="2.65367">
        <ele>1116</ele>
        <time>2010-08-11T07:27:35Z</time>
      </trkpt>
      <trkpt lat="45.12957" lon="2.65376">
        <ele>1116</ele>
        <time>2010-08-11T07:27:52Z</time>
      </trkpt>
      <trkpt lat="45.12956" lon="2.65378">
        <ele>1116</ele>
        <time>2010-08-11T07:27:55Z</time>
      </trkpt>
      <trkpt lat="45.12949" lon="2.65387">
        <ele>1118</ele>
        <time>2010-08-11T07:28:09Z</time>
      </trkpt>
      <trkpt lat="45.12939" lon="2.65395">
        <ele>1121</ele>
        <time>2010-08-11T07:28:34Z</time>
      </trkpt>
      <trkpt lat="45.12931" lon="2.65401">
        <ele>1123</ele>
        <time>2010-08-11T07:28:45Z</time>
      </trkpt>
      <trkpt lat="45.12918" lon="2.65405">
        <ele>1128</ele>
        <time>2010-08-11T07:29:07Z</time>
      </trkpt>
      <trkpt lat="45.12918" lon="2.65406">
        <ele>1128</ele>
        <time>2010-08-11T07:29:17Z</time>
      </trkpt>
      <trkpt lat="45.12908" lon="2.65408">
        <ele>1131</ele>
        <time>2010-08-11T07:29:23Z</time>
      </trkpt>
      <trkpt lat="45.12895" lon="2.65411">
        <ele>1135</ele>
        <time>2010-08-11T07:29:44Z</time>
      </trkpt>
      <trkpt lat="45.12886" lon="2.65413">
        <ele>1138</ele>
        <time>2010-08-11T07:29:59Z</time>
      </trkpt>
      <trkpt lat="45.12879" lon="2.65405">
        <ele>1138</ele>
        <time>2010-08-11T07:30:20Z</time>
      </trkpt>
      <trkpt lat="45.12875" lon="2.65392">
        <ele>1145</ele>
        <time>2010-08-11T07:30:54Z</time>
      </trkpt>
      <trkpt lat="45.12869" lon="2.6538">
        <ele>1146</ele>
        <time>2010-08-11T07:31:05Z</time>
      </trkpt>
      <trkpt lat="45.12862" lon="2.65371">
        <ele>1147</ele>
        <time>2010-08-11T07:31:16Z</time>
      </trkpt>
      <trkpt lat="45.12856" lon="2.65361">
        <ele>1150</ele>
        <time>2010-08-11T07:31:34Z</time>
      </trkpt>
      <trkpt lat="45.12852" lon="2.65349">
        <ele>1152</ele>
        <time>2010-08-11T07:31:50Z</time>
      </trkpt>
      <trkpt lat="45.12848" lon="2.65335">
        <ele>1152</ele>
        <time>2010-08-11T07:32:05Z</time>
      </trkpt>
      <trkpt lat="45.12842" lon="2.65324">
        <ele>1155</ele>
        <time>2010-08-11T07:32:18Z</time>
      </trkpt>
      <trkpt lat="45.12837" lon="2.65311">
        <ele>1157</ele>
        <time>2010-08-11T07:32:32Z</time>
      </trkpt>
      <trkpt lat="45.12831" lon="2.65296">
        <ele>1160</ele>
        <time>2010-08-11T07:32:46Z</time>
      </trkpt>
      <trkpt lat="45.12825" lon="2.65285">
        <ele>1163</ele>
        <time>2010-08-11T07:32:59Z</time>
      </trkpt>
      <trkpt lat="45.12823" lon="2.6527">
        <ele>1165</ele>
        <time>2010-08-11T07:33:15Z</time>
      </trkpt>
      <trkpt lat="45.12819" lon="2.65257">
        <ele>1167</ele>
        <time>2010-08-11T07:33:28Z</time>
      </trkpt>
      <trkpt lat="45.12815" lon="2.65255">
        <ele>1169</ele>
        <time>2010-08-11T07:33:32Z</time>
      </trkpt>
      <trkpt lat="45.12807" lon="2.6526">
        <ele>1170</ele>
        <time>2010-08-11T07:33:54Z</time>
      </trkpt>
      <trkpt lat="45.12808" lon="2.65274">
        <ele>1172</ele>
        <time>2010-08-11T07:34:07Z</time>
      </trkpt>
      <trkpt lat="45.12809" lon="2.65289">
        <ele>1174</ele>
        <time>2010-08-11T07:34:19Z</time>
      </trkpt>
      <trkpt lat="45.12812" lon="2.65302">
        <ele>1177</ele>
        <time>2010-08-11T07:34:31Z</time>
      </trkpt>
      <trkpt lat="45.12813" lon="2.65315">
        <ele>1178</ele>
        <time>2010-08-11T07:34:40Z</time>
      </trkpt>
      <trkpt lat="45.12815" lon="2.65329">
        <ele>1179</ele>
        <time>2010-08-11T07:34:52Z</time>
      </trkpt>
      <trkpt lat="45.12815" lon="2.65342">
        <ele>1182</ele>
        <time>2010-08-11T07:35:43Z</time>
      </trkpt>
      <trkpt lat="45.12813" lon="2.65356">
        <ele>1183</ele>
        <time>2010-08-11T07:35:55Z</time>
      </trkpt>
      <trkpt lat="45.12813" lon="2.65364">
        <ele>1183</ele>
        <time>2010-08-11T07:35:59Z</time>
      </trkpt>
      <trkpt lat="45.1281" lon="2.65378">
        <ele>1183</ele>
        <time>2010-08-11T07:36:11Z</time>
      </trkpt>
      <trkpt lat="45.12803" lon="2.65394">
        <ele>1182</ele>
        <time>2010-08-11T07:36:22Z</time>
      </trkpt>
      <trkpt lat="45.12797" lon="2.65404">
        <ele>1179</ele>
        <time>2010-08-11T07:36:31Z</time>
      </trkpt>
      <trkpt lat="45.12783" lon="2.65413">
        <ele>1181</ele>
        <time>2010-08-11T07:36:48Z</time>
      </trkpt>
      <trkpt lat="45.12773" lon="2.65417">
        <ele>1184</ele>
        <time>2010-08-11T07:36:56Z</time>
      </trkpt>
      <trkpt lat="45.12772" lon="2.65418">
        <ele>1184</ele>
        <time>2010-08-11T07:37:00Z</time>
      </trkpt>
      <trkpt lat="45.12763" lon="2.65424">
        <ele>1187</ele>
        <time>2010-08-11T07:37:06Z</time>
      </trkpt>
      <trkpt lat="45.12754" lon="2.65432">
        <ele>1188</ele>
        <time>2010-08-11T07:37:19Z</time>
      </trkpt>
      <trkpt lat="45.12745" lon="2.65436">
        <ele>1190</ele>
        <time>2010-08-11T07:37:31Z</time>
      </trkpt>
      <trkpt lat="45.12739" lon="2.6545">
        <ele>1196</ele>
        <time>2010-08-11T07:37:49Z</time>
      </trkpt>
      <trkpt lat="45.12739" lon="2.6545">
        <ele>1196</ele>
        <time>2010-08-11T07:37:49Z</time>
      </trkpt>
      <trkpt lat="45.12725" lon="2.65451">
        <ele>1197</ele>
        <time>2010-08-11T07:38:24Z</time>
      </trkpt>
      <trkpt lat="45.12725" lon="2.65451">
        <ele>1198</ele>
        <time>2010-08-11T07:38:28Z</time>
      </trkpt>
      <trkpt lat="45.12713" lon="2.6545">
        <ele>1200</ele>
        <time>2010-08-11T07:38:38Z</time>
      </trkpt>
      <trkpt lat="45.12704" lon="2.65448">
        <ele>1202</ele>
        <time>2010-08-11T07:38:45Z</time>
      </trkpt>
      <trkpt lat="45.12404" lon="2.65534">
        <ele>982</ele>
        <time>2010-08-11T07:44:13Z</time>
      </trkpt>
      <trkpt lat="45.12404" lon="2.65534">
        <ele>982</ele>
        <time>2010-08-11T07:44:13Z</time>
      </trkpt>
      <trkpt lat="45.12404" lon="2.65534">
        <ele>982</ele>
        <time>2010-08-11T07:44:14Z</time>
      </trkpt>
      <trkpt lat="45.11615" lon="2.65966">
        <ele>1311</ele>
        <time>2010-08-11T08:04:38Z</time>
      </trkpt>
      <trkpt lat="45.11615" lon="2.65966">
        <ele>1311</ele>
        <time>2010-08-11T08:04:39Z</time>
      </trkpt>
      <trkpt lat="45.11596" lon="2.65964">
        <ele>1323</ele>
        <time>2010-08-11T08:05:05Z</time>
      </trkpt>
      <trkpt lat="45.11595" lon="2.65966">
        <ele>1323</ele>
        <time>2010-08-11T08:05:19Z</time>
      </trkpt>
      <trkpt lat="45.11589" lon="2.6598">
        <ele>1325</ele>
        <time>2010-08-11T08:05:23Z</time>
      </trkpt>
      <trkpt lat="45.11586" lon="2.6619">
        <ele>1289</ele>
        <time>2010-08-11T08:10:10Z</time>
      </trkpt>
      <trkpt lat="45.11541" lon="2.66202">
        <ele>1370</ele>
        <time>2010-08-11T08:10:13Z</time>
      </trkpt>
      <trkpt lat="45.11541" lon="2.66202">
        <ele>1370</ele>
        <time>2010-08-11T08:10:15Z</time>
      </trkpt>
      <trkpt lat="45.11704" lon="2.66096">
        <ele>1425</ele>
        <time>2010-08-11T08:25:56Z</time>
      </trkpt>
      <trkpt lat="45.11704" lon="2.66096">
        <ele>1425</ele>
        <time>2010-08-11T08:25:56Z</time>
      </trkpt>
      <trkpt lat="45.11704" lon="2.66096">
        <ele>1425</ele>
        <time>2010-08-11T08:26:01Z</time>
      </trkpt>
      <trkpt lat="45.11704" lon="2.66096">
        <ele>1425</ele>
        <time>2010-08-11T08:26:08Z</time>
      </trkpt>
      <trkpt lat="45.11704" lon="2.66096">
        <ele>1425</ele>
        <time>2010-08-11T08:26:10Z</time>
      </trkpt>
      <trkpt lat="45.11724" lon="2.66105">
        <ele>1425</ele>
        <time>2010-08-11T08:26:30Z</time>
      </trkpt>
      <trkpt lat="45.11724" lon="2.66105">
        <ele>1425</ele>
        <time>2010-08-11T08:26:31Z</time>
      </trkpt>
      <trkpt lat="45.11734" lon="2.66103">
        <ele>1423</ele>
        <time>2010-08-11T08:26:53Z</time>
      </trkpt>
      <trkpt lat="45.11689" lon="2.66228">
        <ele>1431</ele>
        <time>2010-08-11T08:32:44Z</time>
      </trkpt>
      <trkpt lat="45.11689" lon="2.66228">
        <ele>1431</ele>
        <time>2010-08-11T08:32:44Z</time>
      </trkpt>
      <trkpt lat="45.11689" lon="2.66228">
        <ele>1431</ele>
        <time>2010-08-11T08:32:45Z</time>
      </trkpt>
      <trkpt lat="45.11824" lon="2.66691">
        <ele>1458</ele>
        <time>2010-08-11T08:43:10Z</time>
      </trkpt>
      <trkpt lat="45.11824" lon="2.66691">
        <ele>1458</ele>
        <time>2010-08-11T08:43:10Z</time>
      </trkpt>
      <trkpt lat="45.11824" lon="2.66691">
        <ele>1458</ele>
        <time>2010-08-11T08:43:10Z</time>
      </trkpt>
      <trkpt lat="45.11407" lon="2.67155">
        <ele>1604</ele>
        <time>2010-08-11T08:58:34Z</time>
      </trkpt>
      <trkpt lat="45.11407" lon="2.67155">
        <ele>1604</ele>
        <time>2010-08-11T08:58:40Z</time>
      </trkpt>
      <trkpt lat="45.11407" lon="2.67155">
        <ele>1604</ele>
        <time>2010-08-11T08:58:46Z</time>
      </trkpt>
      <trkpt lat="45.11411" lon="2.67173">
        <ele>1634</ele>
        <time>2010-08-11T08:58:54Z</time>
      </trkpt>
      <trkpt lat="45.11411" lon="2.67174">
        <ele>1634</ele>
        <time>2010-08-11T08:58:57Z</time>
      </trkpt>
      <trkpt lat="45.11411" lon="2.67177">
        <ele>1637</ele>
        <time>2010-08-11T08:59:12Z</time>
      </trkpt>
      <trkpt lat="45.11424" lon="2.67183">
        <ele>1649</ele>
        <time>2010-08-11T09:12:39Z</time>
      </trkpt>
      <trkpt lat="45.11424" lon="2.67183">
        <ele>1649</ele>
        <time>2010-08-11T09:12:39Z</time>
      </trkpt>
      <trkpt lat="45.11424" lon="2.67183">
        <ele>1649</ele>
        <time>2010-08-11T09:12:40Z</time>
      </trkpt>
      <trkpt lat="45.11424" lon="2.67183">
        <ele>1649</ele>
        <time>2010-08-11T09:12:58Z</time>
      </trkpt>
      <trkpt lat="45.11437" lon="2.67165">
        <ele>1634</ele>
        <time>2010-08-11T09:13:00Z</time>
      </trkpt>
      <trkpt lat="45.11439" lon="2.67165">
        <ele>1635</ele>
        <time>2010-08-11T09:13:02Z</time>
      </trkpt>
      <trkpt lat="45.11449" lon="2.6716">
        <ele>1641</ele>
        <time>2010-08-11T09:13:13Z</time>
      </trkpt>
      <trkpt lat="45.11457" lon="2.67157">
        <ele>1641</ele>
        <time>2010-08-11T09:13:22Z</time>
      </trkpt>
      <trkpt lat="45.11469" lon="2.6715">
        <ele>1643</ele>
        <time>2010-08-11T09:13:37Z</time>
      </trkpt>
      <trkpt lat="45.11478" lon="2.67147">
        <ele>1640</ele>
        <time>2010-08-11T09:14:12Z</time>
      </trkpt>
      <trkpt lat="45.11492" lon="2.67137">
        <ele>1643</ele>
        <time>2010-08-11T09:14:34Z</time>
      </trkpt>
      <trkpt lat="45.11501" lon="2.67135">
        <ele>1645</ele>
        <time>2010-08-11T09:14:48Z</time>
      </trkpt>
      <trkpt lat="45.11512" lon="2.67137">
        <ele>1647</ele>
        <time>2010-08-11T09:15:08Z</time>
      </trkpt>
      <trkpt lat="45.11521" lon="2.67136">
        <ele>1647</ele>
        <time>2010-08-11T09:15:35Z</time>
      </trkpt>
      <trkpt lat="45.11532" lon="2.67129">
        <ele>1650</ele>
        <time>2010-08-11T09:15:53Z</time>
      </trkpt>
      <trkpt lat="45.11544" lon="2.67125">
        <ele>1651</ele>
        <time>2010-08-11T09:16:12Z</time>
      </trkpt>
      <trkpt lat="45.11553" lon="2.67123">
        <ele>1654</ele>
        <time>2010-08-11T09:16:23Z</time>
      </trkpt>
      <trkpt lat="45.11561" lon="2.67119">
        <ele>1654</ele>
        <time>2010-08-11T09:16:35Z</time>
      </trkpt>
      <trkpt lat="45.1157" lon="2.67114">
        <ele>1654</ele>
        <time>2010-08-11T09:16:44Z</time>
      </trkpt>
      <trkpt lat="45.11578" lon="2.67109">
        <ele>1658</ele>
        <time>2010-08-11T09:16:57Z</time>
      </trkpt>
      <trkpt lat="45.11589" lon="2.67102">
        <ele>1660</ele>
        <time>2010-08-11T09:17:09Z</time>
      </trkpt>
      <trkpt lat="45.11598" lon="2.67095">
        <ele>1663</ele>
        <time>2010-08-11T09:17:16Z</time>
      </trkpt>
      <trkpt lat="45.11604" lon="2.67085">
        <ele>1666</ele>
        <time>2010-08-11T09:17:26Z</time>
      </trkpt>
      <trkpt lat="45.1161" lon="2.67076">
        <ele>1664</ele>
        <time>2010-08-11T09:17:37Z</time>
      </trkpt>
      <trkpt lat="45.11618" lon="2.67068">
        <ele>1665</ele>
        <time>2010-08-11T09:17:46Z</time>
      </trkpt>
      <trkpt lat="45.11625" lon="2.67058">
        <ele>1666</ele>
        <time>2010-08-11T09:17:56Z</time>
      </trkpt>
      <trkpt lat="45.11634" lon="2.67054">
        <ele>1665</ele>
        <time>2010-08-11T09:18:07Z</time>
      </trkpt>
      <trkpt lat="45.11643" lon="2.67052">
        <ele>1665</ele>
        <time>2010-08-11T09:18:19Z</time>
      </trkpt>
      <trkpt lat="45.11653" lon="2.67052">
        <ele>1667</ele>
        <time>2010-08-11T09:18:32Z</time>
      </trkpt>
      <trkpt lat="45.11664" lon="2.67053">
        <ele>1668</ele>
        <time>2010-08-11T09:18:45Z</time>
      </trkpt>
      <trkpt lat="45.11673" lon="2.67059">
        <ele>1668</ele>
        <time>2010-08-11T09:18:57Z</time>
      </trkpt>
      <trkpt lat="45.11682" lon="2.6706">
        <ele>1673</ele>
        <time>2010-08-11T09:19:10Z</time>
      </trkpt>
      <trkpt lat="45.11691" lon="2.67057">
        <ele>1675</ele>
        <time>2010-08-11T09:19:23Z</time>
      </trkpt>
      <trkpt lat="45.117" lon="2.67051">
        <ele>1675</ele>
        <time>2010-08-11T09:19:38Z</time>
      </trkpt>
      <trkpt lat="45.11707" lon="2.67042">
        <ele>1677</ele>
        <time>2010-08-11T09:19:51Z</time>
      </trkpt>
      <trkpt lat="45.11716" lon="2.67036">
        <ele>1678</ele>
        <time>2010-08-11T09:20:02Z</time>
      </trkpt>
      <trkpt lat="45.11726" lon="2.67035">
        <ele>1683</ele>
        <time>2010-08-11T09:20:15Z</time>
      </trkpt>
      <trkpt lat="45.11737" lon="2.67036">
        <ele>1686</ele>
        <time>2010-08-11T09:20:27Z</time>
      </trkpt>
      <trkpt lat="45.1175" lon="2.67038">
        <ele>1689</ele>
        <time>2010-08-11T09:20:45Z</time>
      </trkpt>
      <trkpt lat="45.11759" lon="2.67038">
        <ele>1689</ele>
        <time>2010-08-11T09:20:58Z</time>
      </trkpt>
      <trkpt lat="45.11773" lon="2.67037">
        <ele>1688</ele>
        <time>2010-08-11T09:21:09Z</time>
      </trkpt>
      <trkpt lat="45.11784" lon="2.67037">
        <ele>1691</ele>
        <time>2010-08-11T09:21:19Z</time>
      </trkpt>
      <trkpt lat="45.11793" lon="2.67038">
        <ele>1693</ele>
        <time>2010-08-11T09:21:27Z</time>
      </trkpt>
      <trkpt lat="45.11804" lon="2.67036">
        <ele>1697</ele>
        <time>2010-08-11T09:21:49Z</time>
      </trkpt>
      <trkpt lat="45.11814" lon="2.67037">
        <ele>1698</ele>
        <time>2010-08-11T09:22:01Z</time>
      </trkpt>
      <trkpt lat="45.11824" lon="2.67038">
        <ele>1698</ele>
        <time>2010-08-11T09:22:11Z</time>
      </trkpt>
      <trkpt lat="45.11834" lon="2.6704">
        <ele>1699</ele>
        <time>2010-08-11T09:22:24Z</time>
      </trkpt>
      <trkpt lat="45.11844" lon="2.6704">
        <ele>1700</ele>
        <time>2010-08-11T09:22:37Z</time>
      </trkpt>
      <trkpt lat="45.11854" lon="2.67041">
        <ele>1700</ele>
        <time>2010-08-11T09:22:45Z</time>
      </trkpt>
      <trkpt lat="45.11863" lon="2.67042">
        <ele>1701</ele>
        <time>2010-08-11T09:22:52Z</time>
      </trkpt>
      <trkpt lat="45.11873" lon="2.67044">
        <ele>1701</ele>
        <time>2010-08-11T09:22:59Z</time>
      </trkpt>
      <trkpt lat="45.11882" lon="2.67045">
        <ele>1701</ele>
        <time>2010-08-11T09:23:06Z</time>
      </trkpt>
      <trkpt lat="45.11892" lon="2.67044">
        <ele>1702</ele>
        <time>2010-08-11T09:23:16Z</time>
      </trkpt>
      <trkpt lat="45.11901" lon="2.67043">
        <ele>1704</ele>
        <time>2010-08-11T09:23:27Z</time>
      </trkpt>
      <trkpt lat="45.11911" lon="2.67042">
        <ele>1706</ele>
        <time>2010-08-11T09:23:42Z</time>
      </trkpt>
      <trkpt lat="45.11911" lon="2.67042">
        <ele>1707</ele>
        <time>2010-08-11T09:23:44Z</time>
      </trkpt>
      <trkpt lat="45.1192" lon="2.67033">
        <ele>1709</ele>
        <time>2010-08-11T09:24:05Z</time>
      </trkpt>
      <trkpt lat="45.1192" lon="2.6703">
        <ele>1709</ele>
        <time>2010-08-11T09:24:08Z</time>
      </trkpt>
      <trkpt lat="45.11927" lon="2.67019">
        <ele>1714</ele>
        <time>2010-08-11T09:24:39Z</time>
      </trkpt>
      <trkpt lat="45.11938" lon="2.67024">
        <ele>1717</ele>
        <time>2010-08-11T09:24:57Z</time>
      </trkpt>
      <trkpt lat="45.11946" lon="2.67031">
        <ele>1718</ele>
        <time>2010-08-11T09:25:07Z</time>
      </trkpt>
      <trkpt lat="45.11956" lon="2.67035">
        <ele>1721</ele>
        <time>2010-08-11T09:25:21Z</time>
      </trkpt>
      <trkpt lat="45.11966" lon="2.67038">
        <ele>1723</ele>
        <time>2010-08-11T09:25:35Z</time>
      </trkpt>
      <trkpt lat="45.11974" lon="2.67043">
        <ele>1724</ele>
        <time>2010-08-11T09:25:43Z</time>
      </trkpt>
      <trkpt lat="45.11984" lon="2.67047">
        <ele>1726</ele>
        <time>2010-08-11T09:25:51Z</time>
      </trkpt>
      <trkpt lat="45.11994" lon="2.6705">
        <ele>1727</ele>
        <time>2010-08-11T09:25:58Z</time>
      </trkpt>
      <trkpt lat="45.12003" lon="2.67054">
        <ele>1729</ele>
        <time>2010-08-11T09:26:10Z</time>
      </trkpt>
      <trkpt lat="45.12003" lon="2.67054">
        <ele>1729</ele>
        <time>2010-08-11T09:26:12Z</time>
      </trkpt>
      <trkpt lat="45.12363" lon="2.67365">
        <ele>1721</ele>
        <time>2010-08-11T09:35:39Z</time>
      </trkpt>
      <trkpt lat="45.12363" lon="2.67365">
        <ele>1721</ele>
        <time>2010-08-11T09:35:40Z</time>
      </trkpt>
      <trkpt lat="45.12384" lon="2.6736">
        <ele>1736</ele>
        <time>2010-08-11T09:35:59Z</time>
      </trkpt>
      <trkpt lat="45.12386" lon="2.67359">
        <ele>1735</ele>
        <time>2010-08-11T09:36:01Z</time>
      </trkpt>
      <trkpt lat="45.12395" lon="2.67354">
        <ele>1735</ele>
        <time>2010-08-11T09:36:10Z</time>
      </trkpt>
      <trkpt lat="45.12404" lon="2.6735">
        <ele>1736</ele>
        <time>2010-08-11T09:36:18Z</time>
      </trkpt>
      <trkpt lat="45.12527" lon="2.67338">
        <ele>1779</ele>
        <time>2010-08-11T09:39:36Z</time>
      </trkpt>
      <trkpt lat="45.12527" lon="2.67338">
        <ele>1779</ele>
        <time>2010-08-11T09:39:37Z</time>
      </trkpt>
      <trkpt lat="45.12514" lon="2.67326">
        <ele>1757</ele>
        <time>2010-08-11T09:39:56Z</time>
      </trkpt>
      <trkpt lat="45.12514" lon="2.67326">
        <ele>1758</ele>
        <time>2010-08-11T09:39:58Z</time>
      </trkpt>
      <trkpt lat="45.12514" lon="2.67324">
        <ele>1695</ele>
        <time>2010-08-11T09:47:31Z</time>
      </trkpt>
      <trkpt lat="45.12514" lon="2.67324">
        <ele>1695</ele>
        <time>2010-08-11T09:47:31Z</time>
      </trkpt>
      <trkpt lat="45.12514" lon="2.67324">
        <ele>1695</ele>
        <time>2010-08-11T09:47:31Z</time>
      </trkpt>
      <trkpt lat="45.12529" lon="2.67321">
        <ele>1749</ele>
        <time>2010-08-11T09:47:48Z</time>
      </trkpt>
      <trkpt lat="45.12529" lon="2.67321">
        <ele>1749</ele>
        <time>2010-08-11T09:47:50Z</time>
      </trkpt>
      <trkpt lat="45.12533" lon="2.67309">
        <ele>1750</ele>
        <time>2010-08-11T09:48:00Z</time>
      </trkpt>
      <trkpt lat="45.12533" lon="2.67295">
        <ele>1746</ele>
        <time>2010-08-11T09:48:24Z</time>
      </trkpt>
      <trkpt lat="45.12533" lon="2.67293">
        <ele>1745</ele>
        <time>2010-08-11T09:48:26Z</time>
      </trkpt>
      <trkpt lat="45.12531" lon="2.6728">
        <ele>1749</ele>
        <time>2010-08-11T09:48:46Z</time>
      </trkpt>
      <trkpt lat="45.12532" lon="2.67267">
        <ele>1744</ele>
        <time>2010-08-11T09:49:13Z</time>
      </trkpt>
      <trkpt lat="45.12535" lon="2.6726">
        <ele>1742</ele>
        <time>2010-08-11T09:49:25Z</time>
      </trkpt>
      <trkpt lat="45.12542" lon="2.67253">
        <ele>1738</ele>
        <time>2010-08-11T09:49:39Z</time>
      </trkpt>
      <trkpt lat="45.12547" lon="2.67242">
        <ele>1736</ele>
        <time>2010-08-11T09:49:54Z</time>
      </trkpt>
      <trkpt lat="45.12555" lon="2.67234">
        <ele>1734</ele>
        <time>2010-08-11T09:50:07Z</time>
      </trkpt>
      <trkpt lat="45.12562" lon="2.67226">
        <ele>1732</ele>
        <time>2010-08-11T09:50:18Z</time>
      </trkpt>
      <trkpt lat="45.12569" lon="2.67217">
        <ele>1730</ele>
        <time>2010-08-11T09:50:29Z</time>
      </trkpt>
      <trkpt lat="45.12579" lon="2.67216">
        <ele>1726</ele>
        <time>2010-08-11T09:50:40Z</time>
      </trkpt>
      <trkpt lat="45.12588" lon="2.67218">
        <ele>1724</ele>
        <time>2010-08-11T09:50:49Z</time>
      </trkpt>
      <trkpt lat="45.12595" lon="2.6722">
        <ele>1724</ele>
        <time>2010-08-11T09:50:56Z</time>
      </trkpt>
      <trkpt lat="45.12604" lon="2.6722">
        <ele>1717</ele>
        <time>2010-08-11T09:51:07Z</time>
      </trkpt>
      <trkpt lat="45.1261" lon="2.67219">
        <ele>1715</ele>
        <time>2010-08-11T09:51:14Z</time>
      </trkpt>
      <trkpt lat="45.12619" lon="2.67224">
        <ele>1714</ele>
        <time>2010-08-11T09:51:26Z</time>
      </trkpt>
      <trkpt lat="45.12622" lon="2.67232">
        <ele>1714</ele>
        <time>2010-08-11T09:51:33Z</time>
      </trkpt>
      <trkpt lat="45.1263" lon="2.6724">
        <ele>1714</ele>
        <time>2010-08-11T09:51:52Z</time>
      </trkpt>
      <trkpt lat="45.1264" lon="2.67239">
        <ele>1709</ele>
        <time>2010-08-11T09:52:16Z</time>
      </trkpt>
      <trkpt lat="45.1264" lon="2.67239">
        <ele>1708</ele>
        <time>2010-08-11T09:52:16Z</time>
      </trkpt>
      <trkpt lat="45.12642" lon="2.67244">
        <ele>1702</ele>
        <time>2010-08-11T09:52:43Z</time>
      </trkpt>
      <trkpt lat="45.1265" lon="2.67251">
        <ele>1703</ele>
        <time>2010-08-11T09:52:53Z</time>
      </trkpt>
      <trkpt lat="45.12655" lon="2.67262">
        <ele>1701</ele>
        <time>2010-08-11T09:53:03Z</time>
      </trkpt>
      <trkpt lat="45.12663" lon="2.67277">
        <ele>1701</ele>
        <time>2010-08-11T09:53:13Z</time>
      </trkpt>
      <trkpt lat="45.1267" lon="2.67285">
        <ele>1700</ele>
        <time>2010-08-11T09:53:25Z</time>
      </trkpt>
      <trkpt lat="45.1268" lon="2.67287">
        <ele>1697</ele>
        <time>2010-08-11T09:53:42Z</time>
      </trkpt>
      <trkpt lat="45.12686" lon="2.67296">
        <ele>1693</ele>
        <time>2010-08-11T09:53:54Z</time>
      </trkpt>
      <trkpt lat="45.12691" lon="2.67308">
        <ele>1691</ele>
        <time>2010-08-11T09:54:03Z</time>
      </trkpt>
      <trkpt lat="45.12697" lon="2.67318">
        <ele>1688</ele>
        <time>2010-08-11T09:54:13Z</time>
      </trkpt>
      <trkpt lat="45.12705" lon="2.67323">
        <ele>1686</ele>
        <time>2010-08-11T09:54:25Z</time>
      </trkpt>
      <trkpt lat="45.12714" lon="2.67323">
        <ele>1680</ele>
        <time>2010-08-11T09:54:40Z</time>
      </trkpt>
      <trkpt lat="45.12716" lon="2.67322">
        <ele>1675</ele>
        <time>2010-08-11T09:54:50Z</time>
      </trkpt>
      <trkpt lat="45.12724" lon="2.67317">
        <ele>1668</ele>
        <time>2010-08-11T09:54:55Z</time>
      </trkpt>
      <trkpt lat="45.12728" lon="2.67312">
        <ele>1660</ele>
        <time>2010-08-11T09:56:04Z</time>
      </trkpt>
      <trkpt lat="45.12737" lon="2.67306">
        <ele>1658</ele>
        <time>2010-08-11T09:59:20Z</time>
      </trkpt>
      <trkpt lat="45.12737" lon="2.67306">
        <ele>1658</ele>
        <time>2010-08-11T09:59:21Z</time>
      </trkpt>
      <trkpt lat="45.12746" lon="2.67303">
        <ele>1657</ele>
        <time>2010-08-11T09:59:30Z</time>
      </trkpt>
      <trkpt lat="45.12747" lon="2.67303">
        <ele>1657</ele>
        <time>2010-08-11T09:59:30Z</time>
      </trkpt>
      <trkpt lat="45.12756" lon="2.67304">
        <ele>1657</ele>
        <time>2010-08-11T09:59:41Z</time>
      </trkpt>
      <trkpt lat="45.12765" lon="2.673">
        <ele>1653</ele>
        <time>2010-08-11T09:59:52Z</time>
      </trkpt>
      <trkpt lat="45.12774" lon="2.67301">
        <ele>1651</ele>
        <time>2010-08-11T10:00:03Z</time>
      </trkpt>
      <trkpt lat="45.12784" lon="2.67302">
        <ele>1648</ele>
        <time>2010-08-11T10:00:13Z</time>
      </trkpt>
      <trkpt lat="45.12793" lon="2.67303">
        <ele>1648</ele>
        <time>2010-08-11T10:00:24Z</time>
      </trkpt>
      <trkpt lat="45.12802" lon="2.67307">
        <ele>1645</ele>
        <time>2010-08-11T10:00:35Z</time>
      </trkpt>
      <trkpt lat="45.12811" lon="2.67307">
        <ele>1642</ele>
        <time>2010-08-11T10:00:45Z</time>
      </trkpt>
      <trkpt lat="45.12821" lon="2.67305">
        <ele>1639</ele>
        <time>2010-08-11T10:00:56Z</time>
      </trkpt>
      <trkpt lat="45.1283" lon="2.67304">
        <ele>1636</ele>
        <time>2010-08-11T10:01:04Z</time>
      </trkpt>
      <trkpt lat="45.13167" lon="2.67242">
        <ele>1585</ele>
        <time>2010-08-11T10:05:59Z</time>
      </trkpt>
      <trkpt lat="45.13167" lon="2.67242">
        <ele>1585</ele>
        <time>2010-08-11T10:05:59Z</time>
      </trkpt>
      <trkpt lat="45.13167" lon="2.67242">
        <ele>1585</ele>
        <time>2010-08-11T10:06:00Z</time>
      </trkpt>
      <trkpt lat="45.13165" lon="2.67225">
        <ele>1590</ele>
        <time>2010-08-11T10:06:00Z</time>
      </trkpt>
      <trkpt lat="45.13175" lon="2.67196">
        <ele>1599</ele>
        <time>2010-08-11T10:06:03Z</time>
      </trkpt>
      <trkpt lat="45.13172" lon="2.67237">
        <ele>1599</ele>
        <time>2010-08-11T10:06:04Z</time>
      </trkpt>
      <trkpt lat="45.13399" lon="2.67235">
        <ele>1578</ele>
        <time>2010-08-11T10:11:04Z</time>
      </trkpt>
      <trkpt lat="45.13399" lon="2.67235">
        <ele>1578</ele>
        <time>2010-08-11T10:11:04Z</time>
      </trkpt>
      <trkpt lat="45.13399" lon="2.67235">
        <ele>1578</ele>
        <time>2010-08-11T10:11:05Z</time>
      </trkpt>
      <trkpt lat="45.13374" lon="2.67261">
        <ele>1581</ele>
        <time>2010-08-11T10:15:28Z</time>
      </trkpt>
      <trkpt lat="45.13374" lon="2.67261">
        <ele>1581</ele>
        <time>2010-08-11T10:15:28Z</time>
      </trkpt>
      <trkpt lat="45.13374" lon="2.67261">
        <ele>1581</ele>
        <time>2010-08-11T10:15:28Z</time>
      </trkpt>
      <trkpt lat="45.1342" lon="2.67241">
        <ele>1606</ele>
        <time>2010-08-11T10:45:35Z</time>
      </trkpt>
      <trkpt lat="45.1342" lon="2.67241">
        <ele>1606</ele>
        <time>2010-08-11T10:45:35Z</time>
      </trkpt>
      <trkpt lat="45.1342" lon="2.67241">
        <ele>1606</ele>
        <time>2010-08-11T10:45:36Z</time>
      </trkpt>
      <trkpt lat="45.1342" lon="2.67241">
        <ele>1606</ele>
        <time>2010-08-11T10:46:09Z</time>
      </trkpt>
      <trkpt lat="45.13446" lon="2.67228">
        <ele>1606</ele>
        <time>2010-08-11T10:46:36Z</time>
      </trkpt>
      <trkpt lat="45.13461" lon="2.67239">
        <ele>1606</ele>
        <time>2010-08-11T10:46:51Z</time>
      </trkpt>
      <trkpt lat="45.13464" lon="2.67242">
        <ele>1607</ele>
        <time>2010-08-11T10:46:53Z</time>
      </trkpt>
      <trkpt lat="45.13473" lon="2.67248">
        <ele>1606</ele>
        <time>2010-08-11T10:46:58Z</time>
      </trkpt>
      <trkpt lat="45.13481" lon="2.67255">
        <ele>1605</ele>
        <time>2010-08-11T10:47:05Z</time>
      </trkpt>
      <trkpt lat="45.1349" lon="2.67264">
        <ele>1607</ele>
        <time>2010-08-11T10:47:13Z</time>
      </trkpt>
      <trkpt lat="45.13497" lon="2.6727">
        <ele>1607</ele>
        <time>2010-08-11T10:47:20Z</time>
      </trkpt>
      <trkpt lat="45.135" lon="2.67272">
        <ele>1607</ele>
        <time>2010-08-11T10:47:23Z</time>
      </trkpt>
      <trkpt lat="45.13509" lon="2.67275">
        <ele>1607</ele>
        <time>2010-08-11T10:47:31Z</time>
      </trkpt>
      <trkpt lat="45.13518" lon="2.6728">
        <ele>1608</ele>
        <time>2010-08-11T10:47:38Z</time>
      </trkpt>
      <trkpt lat="45.13528" lon="2.67282">
        <ele>1608</ele>
        <time>2010-08-11T10:47:46Z</time>
      </trkpt>
      <trkpt lat="45.13535" lon="2.67281">
        <ele>1608</ele>
        <time>2010-08-11T10:47:54Z</time>
      </trkpt>
      <trkpt lat="45.13545" lon="2.67276">
        <ele>1609</ele>
        <time>2010-08-11T10:48:03Z</time>
      </trkpt>
      <trkpt lat="45.13555" lon="2.67272">
        <ele>1609</ele>
        <time>2010-08-11T10:48:12Z</time>
      </trkpt>
      <trkpt lat="45.13565" lon="2.67267">
        <ele>1609</ele>
        <time>2010-08-11T10:48:21Z</time>
      </trkpt>
      <trkpt lat="45.13574" lon="2.67263">
        <ele>1609</ele>
        <time>2010-08-11T10:48:28Z</time>
      </trkpt>
      <trkpt lat="45.13579" lon="2.6726">
        <ele>1610</ele>
        <time>2010-08-11T10:48:32Z</time>
      </trkpt>
      <trkpt lat="45.13593" lon="2.67252">
        <ele>1605</ele>
        <time>2010-08-11T10:48:52Z</time>
      </trkpt>
      <trkpt lat="45.13603" lon="2.67245">
        <ele>1601</ele>
        <time>2010-08-11T10:49:06Z</time>
      </trkpt>
      <trkpt lat="45.1361" lon="2.67236">
        <ele>1599</ele>
        <time>2010-08-11T10:49:18Z</time>
      </trkpt>
      <trkpt lat="45.13619" lon="2.67229">
        <ele>1597</ele>
        <time>2010-08-11T10:49:28Z</time>
      </trkpt>
      <trkpt lat="45.13628" lon="2.67225">
        <ele>1594</ele>
        <time>2010-08-11T10:49:37Z</time>
      </trkpt>
      <trkpt lat="45.13637" lon="2.67224">
        <ele>1592</ele>
        <time>2010-08-11T10:49:49Z</time>
      </trkpt>
      <trkpt lat="45.13648" lon="2.67223">
        <ele>1590</ele>
        <time>2010-08-11T10:50:00Z</time>
      </trkpt>
      <trkpt lat="45.13649" lon="2.67223">
        <ele>1590</ele>
        <time>2010-08-11T10:50:06Z</time>
      </trkpt>
      <trkpt lat="45.13658" lon="2.6722">
        <ele>1585</ele>
        <time>2010-08-11T10:50:13Z</time>
      </trkpt>
      <trkpt lat="45.1367" lon="2.67213">
        <ele>1585</ele>
        <time>2010-08-11T10:50:23Z</time>
      </trkpt>
      <trkpt lat="45.13676" lon="2.67211">
        <ele>1585</ele>
        <time>2010-08-11T10:50:27Z</time>
      </trkpt>
      <trkpt lat="45.13686" lon="2.67207">
        <ele>1584</ele>
        <time>2010-08-11T10:50:36Z</time>
      </trkpt>
      <trkpt lat="45.13687" lon="2.67207">
        <ele>1583</ele>
        <time>2010-08-11T10:50:38Z</time>
      </trkpt>
      <trkpt lat="45.13698" lon="2.67206">
        <ele>1581</ele>
        <time>2010-08-11T10:50:49Z</time>
      </trkpt>
      <trkpt lat="45.13708" lon="2.67201">
        <ele>1579</ele>
        <time>2010-08-11T10:50:58Z</time>
      </trkpt>
      <trkpt lat="45.13717" lon="2.67199">
        <ele>1577</ele>
        <time>2010-08-11T10:51:07Z</time>
      </trkpt>
      <trkpt lat="45.13718" lon="2.67198">
        <ele>1576</ele>
        <time>2010-08-11T10:51:11Z</time>
      </trkpt>
      <trkpt lat="45.13731" lon="2.67192">
        <ele>1575</ele>
        <time>2010-08-11T10:51:21Z</time>
      </trkpt>
      <trkpt lat="45.13735" lon="2.67189">
        <ele>1575</ele>
        <time>2010-08-11T10:51:27Z</time>
      </trkpt>
      <trkpt lat="45.13743" lon="2.67182">
        <ele>1573</ele>
        <time>2010-08-11T10:51:35Z</time>
      </trkpt>
      <trkpt lat="45.13748" lon="2.67177">
        <ele>1572</ele>
        <time>2010-08-11T10:51:42Z</time>
      </trkpt>
      <trkpt lat="45.13756" lon="2.67172">
        <ele>1570</ele>
        <time>2010-08-11T10:51:49Z</time>
      </trkpt>
      <trkpt lat="45.13763" lon="2.67162">
        <ele>1570</ele>
        <time>2010-08-11T10:51:58Z</time>
      </trkpt>
      <trkpt lat="45.13771" lon="2.67154">
        <ele>1567</ele>
        <time>2010-08-11T10:52:08Z</time>
      </trkpt>
      <trkpt lat="45.13781" lon="2.67147">
        <ele>1566</ele>
        <time>2010-08-11T10:52:18Z</time>
      </trkpt>
      <trkpt lat="45.13788" lon="2.67143">
        <ele>1566</ele>
        <time>2010-08-11T10:52:26Z</time>
      </trkpt>
      <trkpt lat="45.13797" lon="2.67139">
        <ele>1566</ele>
        <time>2010-08-11T10:52:34Z</time>
      </trkpt>
      <trkpt lat="45.13807" lon="2.67134">
        <ele>1564</ele>
        <time>2010-08-11T10:52:48Z</time>
      </trkpt>
      <trkpt lat="45.13808" lon="2.67133">
        <ele>1565</ele>
        <time>2010-08-11T10:52:49Z</time>
      </trkpt>
      <trkpt lat="45.13816" lon="2.67127">
        <ele>1563</ele>
        <time>2010-08-11T10:52:58Z</time>
      </trkpt>
      <trkpt lat="45.13826" lon="2.6712">
        <ele>1562</ele>
        <time>2010-08-11T10:53:09Z</time>
      </trkpt>
      <trkpt lat="45.13839" lon="2.67114">
        <ele>1561</ele>
        <time>2010-08-11T10:53:22Z</time>
      </trkpt>
      <trkpt lat="45.13848" lon="2.67109">
        <ele>1560</ele>
        <time>2010-08-11T10:53:30Z</time>
      </trkpt>
      <trkpt lat="45.13857" lon="2.67105">
        <ele>1561</ele>
        <time>2010-08-11T10:53:36Z</time>
      </trkpt>
      <trkpt lat="45.13866" lon="2.671">
        <ele>1562</ele>
        <time>2010-08-11T10:53:43Z</time>
      </trkpt>
      <trkpt lat="45.13876" lon="2.67095">
        <ele>1561</ele>
        <time>2010-08-11T10:53:53Z</time>
      </trkpt>
      <trkpt lat="45.13883" lon="2.67091">
        <ele>1560</ele>
        <time>2010-08-11T10:54:01Z</time>
      </trkpt>
      <trkpt lat="45.13892" lon="2.67085">
        <ele>1560</ele>
        <time>2010-08-11T10:54:08Z</time>
      </trkpt>
      <trkpt lat="45.13898" lon="2.67081">
        <ele>1559</ele>
        <time>2010-08-11T10:54:15Z</time>
      </trkpt>
      <trkpt lat="45.13906" lon="2.67072">
        <ele>1561</ele>
        <time>2010-08-11T10:54:22Z</time>
      </trkpt>
      <trkpt lat="45.13915" lon="2.67062">
        <ele>1562</ele>
        <time>2010-08-11T10:54:31Z</time>
      </trkpt>
      <trkpt lat="45.13922" lon="2.67053">
        <ele>1563</ele>
        <time>2010-08-11T10:54:38Z</time>
      </trkpt>
      <trkpt lat="45.13929" lon="2.67044">
        <ele>1563</ele>
        <time>2010-08-11T10:54:48Z</time>
      </trkpt>
      <trkpt lat="45.13929" lon="2.67043">
        <ele>1564</ele>
        <time>2010-08-11T10:54:49Z</time>
      </trkpt>
      <trkpt lat="45.13936" lon="2.67034">
        <ele>1567</ele>
        <time>2010-08-11T10:55:01Z</time>
      </trkpt>
      <trkpt lat="45.13945" lon="2.67018">
        <ele>1567</ele>
        <time>2010-08-11T10:55:15Z</time>
      </trkpt>
      <trkpt lat="45.1395" lon="2.67007">
        <ele>1568</ele>
        <time>2010-08-11T10:55:23Z</time>
      </trkpt>
      <trkpt lat="45.13955" lon="2.66994">
        <ele>1567</ele>
        <time>2010-08-11T10:55:32Z</time>
      </trkpt>
      <trkpt lat="45.13962" lon="2.66984">
        <ele>1567</ele>
        <time>2010-08-11T10:55:55Z</time>
      </trkpt>
      <trkpt lat="45.13967" lon="2.66973">
        <ele>1567</ele>
        <time>2010-08-11T10:56:02Z</time>
      </trkpt>
      <trkpt lat="45.13974" lon="2.66964">
        <ele>1567</ele>
        <time>2010-08-11T10:56:10Z</time>
      </trkpt>
      <trkpt lat="45.13986" lon="2.66947">
        <ele>1568</ele>
        <time>2010-08-11T10:56:25Z</time>
      </trkpt>
      <trkpt lat="45.13996" lon="2.66938">
        <ele>1566</ele>
        <time>2010-08-11T10:56:35Z</time>
      </trkpt>
      <trkpt lat="45.14004" lon="2.6693">
        <ele>1567</ele>
        <time>2010-08-11T10:56:41Z</time>
      </trkpt>
      <trkpt lat="45.14012" lon="2.6692">
        <ele>1567</ele>
        <time>2010-08-11T10:56:50Z</time>
      </trkpt>
      <trkpt lat="45.1402" lon="2.66912">
        <ele>1566</ele>
        <time>2010-08-11T10:56:57Z</time>
      </trkpt>
      <trkpt lat="45.14033" lon="2.66898">
        <ele>1566</ele>
        <time>2010-08-11T10:57:09Z</time>
      </trkpt>
      <trkpt lat="45.14039" lon="2.66889">
        <ele>1565</ele>
        <time>2010-08-11T10:57:18Z</time>
      </trkpt>
      <trkpt lat="45.14049" lon="2.66881">
        <ele>1565</ele>
        <time>2010-08-11T10:57:28Z</time>
      </trkpt>
      <trkpt lat="45.14052" lon="2.66878">
        <ele>1564</ele>
        <time>2010-08-11T10:57:32Z</time>
      </trkpt>
      <trkpt lat="45.14059" lon="2.6687">
        <ele>1564</ele>
        <time>2010-08-11T10:57:43Z</time>
      </trkpt>
      <trkpt lat="45.14069" lon="2.66865">
        <ele>1565</ele>
        <time>2010-08-11T10:57:55Z</time>
      </trkpt>
      <trkpt lat="45.14077" lon="2.6686">
        <ele>1565</ele>
        <time>2010-08-11T10:58:04Z</time>
      </trkpt>
      <trkpt lat="45.14087" lon="2.66856">
        <ele>1567</ele>
        <time>2010-08-11T10:58:11Z</time>
      </trkpt>
      <trkpt lat="45.14097" lon="2.66851">
        <ele>1567</ele>
        <time>2010-08-11T10:58:18Z</time>
      </trkpt>
      <trkpt lat="45.14098" lon="2.66851">
        <ele>1568</ele>
        <time>2010-08-11T10:58:19Z</time>
      </trkpt>
      <trkpt lat="45.14107" lon="2.66846">
        <ele>1568</ele>
        <time>2010-08-11T10:58:28Z</time>
      </trkpt>
      <trkpt lat="45.14115" lon="2.66846">
        <ele>1566</ele>
        <time>2010-08-11T10:58:38Z</time>
      </trkpt>
      <trkpt lat="45.14125" lon="2.66845">
        <ele>1567</ele>
        <time>2010-08-11T10:58:45Z</time>
      </trkpt>
      <trkpt lat="45.14135" lon="2.66845">
        <ele>1569</ele>
        <time>2010-08-11T10:58:54Z</time>
      </trkpt>
      <trkpt lat="45.14146" lon="2.66846">
        <ele>1569</ele>
        <time>2010-08-11T10:59:03Z</time>
      </trkpt>
      <trkpt lat="45.14146" lon="2.66846">
        <ele>1569</ele>
        <time>2010-08-11T10:59:04Z</time>
      </trkpt>
      <trkpt lat="45.14267" lon="2.66791">
        <ele>1551</ele>
        <time>2010-08-11T11:01:04Z</time>
      </trkpt>
      <trkpt lat="45.14267" lon="2.66791">
        <ele>1551</ele>
        <time>2010-08-11T11:01:04Z</time>
      </trkpt>
      <trkpt lat="45.14267" lon="2.66791">
        <ele>1551</ele>
        <time>2010-08-11T11:01:05Z</time>
      </trkpt>
      <trkpt lat="45.14952" lon="2.66552">
        <ele>1489</ele>
        <time>2010-08-11T11:12:29Z</time>
      </trkpt>
      <trkpt lat="45.14952" lon="2.66552">
        <ele>1489</ele>
        <time>2010-08-11T11:12:29Z</time>
      </trkpt>
      <trkpt lat="45.14952" lon="2.66552">
        <ele>1489</ele>
        <time>2010-08-11T11:12:30Z</time>
      </trkpt>
      <trkpt lat="45.15268" lon="2.66199">
        <ele>1583</ele>
        <time>2010-08-11T11:20:39Z</time>
      </trkpt>
      <trkpt lat="45.15268" lon="2.66199">
        <ele>1583</ele>
        <time>2010-08-11T11:20:39Z</time>
      </trkpt>
      <trkpt lat="45.15268" lon="2.66199">
        <ele>1583</ele>
        <time>2010-08-11T11:20:40Z</time>
      </trkpt>
      <trkpt lat="45.15245" lon="2.66219">
        <ele>1596</ele>
        <time>2010-08-11T11:20:47Z</time>
      </trkpt>
      <trkpt lat="45.15392" lon="2.66124">
        <ele>1592</ele>
        <time>2010-08-11T11:33:57Z</time>
      </trkpt>
      <trkpt lat="45.15392" lon="2.66124">
        <ele>1592</ele>
        <time>2010-08-11T11:33:57Z</time>
      </trkpt>
      <trkpt lat="45.15392" lon="2.66124">
        <ele>1592</ele>
        <time>2010-08-11T11:33:58Z</time>
      </trkpt>
      <trkpt lat="45.15395" lon="2.66114">
        <ele>1580</ele>
        <time>2010-08-11T11:34:23Z</time>
      </trkpt>
      <trkpt lat="45.15527" lon="2.66067">
        <ele>1544</ele>
        <time>2010-08-11T11:36:54Z</time>
      </trkpt>
      <trkpt lat="45.15527" lon="2.66067">
        <ele>1544</ele>
        <time>2010-08-11T11:36:54Z</time>
      </trkpt>
      <trkpt lat="45.15527" lon="2.66067">
        <ele>1544</ele>
        <time>2010-08-11T11:36:54Z</time>
      </trkpt>
      <trkpt lat="45.1641" lon="2.65319">
        <ele>1579</ele>
        <time>2010-08-11T11:58:20Z</time>
      </trkpt>
      <trkpt lat="45.1641" lon="2.65319">
        <ele>1579</ele>
        <time>2010-08-11T11:58:20Z</time>
      </trkpt>
      <trkpt lat="45.1641" lon="2.65319">
        <ele>1579</ele>
        <time>2010-08-11T11:58:21Z</time>
      </trkpt>
      <trkpt lat="45.16409" lon="2.65318">
        <ele>1532.4</ele>
        <time>2010-08-11T11:58:38Z</time>
      </trkpt>
      <trkpt lat="45.16409" lon="2.65318">
        <ele>1532.4</ele>
        <time>2010-08-11T11:58:38Z</time>
      </trkpt>
      <trkpt lat="45.16409" lon="2.65318">
        <ele>1532.4</ele>
        <time>2010-08-11T11:58:38Z</time>
      </trkpt>
      <trkpt lat="45.16431" lon="2.65286">
        <ele>1583</ele>
        <time>2010-08-11T11:58:48Z</time>
      </trkpt>
      <trkpt lat="45.16431" lon="2.65286">
        <ele>1583</ele>
        <time>2010-08-11T11:58:50Z</time>
      </trkpt>
      <trkpt lat="45.16431" lon="2.65286">
        <ele>1583</ele>
        <time>2010-08-11T11:58:57Z</time>
      </trkpt>
      <trkpt lat="45.16434" lon="2.65269">
        <ele>1578</ele>
        <time>2010-08-11T11:59:03Z</time>
      </trkpt>
      <trkpt lat="45.16101" lon="2.64457">
        <ele>1293</ele>
        <time>2010-08-11T12:24:46Z</time>
      </trkpt>
      <trkpt lat="45.16101" lon="2.64457">
        <ele>1293</ele>
        <time>2010-08-11T12:24:46Z</time>
      </trkpt>
      <trkpt lat="45.16101" lon="2.64457">
        <ele>1293</ele>
        <time>2010-08-11T12:24:47Z</time>
      </trkpt>
      <trkpt lat="45.16066" lon="2.64466">
        <ele>1302</ele>
        <time>2010-08-11T12:25:04Z</time>
      </trkpt>
      <trkpt lat="45.16066" lon="2.64466">
        <ele>1302</ele>
        <time>2010-08-11T12:25:04Z</time>
      </trkpt>
      <trkpt lat="45.16066" lon="2.64466">
        <ele>1302</ele>
        <time>2010-08-11T12:25:05Z</time>
      </trkpt>
      <trkpt lat="45.16059" lon="2.64517">
        <ele>1410</ele>
        <time>2010-08-11T12:25:26Z</time>
      </trkpt>
      <trkpt lat="45.16059" lon="2.64517">
        <ele>1410</ele>
        <time>2010-08-11T12:25:29Z</time>
      </trkpt>
      <trkpt lat="45.16052" lon="2.64529">
        <ele>1411</ele>
        <time>2010-08-11T12:25:37Z</time>
      </trkpt>
      <trkpt lat="45.15976" lon="2.64691">
        <ele>1341</ele>
        <time>2010-08-11T12:29:50Z</time>
      </trkpt>
      <trkpt lat="45.15976" lon="2.64691">
        <ele>1341</ele>
        <time>2010-08-11T12:29:50Z</time>
      </trkpt>
      <trkpt lat="45.15976" lon="2.64691">
        <ele>1341</ele>
        <time>2010-08-11T12:29:51Z</time>
      </trkpt>
      <trkpt lat="45.15963" lon="2.64629">
        <ele>1363</ele>
        <time>2010-08-11T12:30:04Z</time>
      </trkpt>
      <trkpt lat="45.15599" lon="2.64316">
        <ele>1212</ele>
        <time>2010-08-11T12:44:48Z</time>
      </trkpt>
      <trkpt lat="45.15599" lon="2.64316">
        <ele>1212</ele>
        <time>2010-08-11T12:44:48Z</time>
      </trkpt>
      <trkpt lat="45.15599" lon="2.64316">
        <ele>1212</ele>
        <time>2010-08-11T12:44:48Z</time>
      </trkpt>
      <trkpt lat="45.15599" lon="2.64316">
        <ele>1212</ele>
        <time>2010-08-11T12:44:59Z</time>
      </trkpt>
      <trkpt lat="45.15595" lon="2.64326">
        <ele>1237</ele>
        <time>2010-08-11T12:45:10Z</time>
      </trkpt>
      <trkpt lat="45.15594" lon="2.64324">
        <ele>1200.1</ele>
        <time>2010-08-11T12:46:48Z</time>
      </trkpt>
      <trkpt lat="45.15594" lon="2.64324">
        <ele>1200.1</ele>
        <time>2010-08-11T12:46:48Z</time>
      </trkpt>
      <trkpt lat="45.15594" lon="2.64324">
        <ele>1200.1</ele>
        <time>2010-08-11T12:46:50Z</time>
      </trkpt>
      <trkpt lat="45.15611" lon="2.64277">
        <ele>1170</ele>
        <time>2010-08-11T12:47:03Z</time>
      </trkpt>
      <trkpt lat="45.15611" lon="2.64277">
        <ele>1170</ele>
        <time>2010-08-11T12:47:06Z</time>
      </trkpt>
      <trkpt lat="45.15607" lon="2.64258">
        <ele>1174</ele>
        <time>2010-08-11T12:47:17Z</time>
      </trkpt>
      <trkpt lat="45.15605" lon="2.64257">
        <ele>1175</ele>
        <time>2010-08-11T12:47:20Z</time>
      </trkpt>
      <trkpt lat="45.15334" lon="2.64365">
        <ele>981</ele>
        <time>2010-08-11T12:56:15Z</time>
      </trkpt>
      <trkpt lat="45.15334" lon="2.64365">
        <ele>981</ele>
        <time>2010-08-11T12:56:15Z</time>
      </trkpt>
      <trkpt lat="45.15334" lon="2.64365">
        <ele>981</ele>
        <time>2010-08-11T12:56:16Z</time>
      </trkpt>
      <trkpt lat="45.13523" lon="2.6475">
        <ele>990</ele>
        <time>2010-08-11T13:32:39Z</time>
      </trkpt>
      <trkpt lat="45.13523" lon="2.6475">
        <ele>990</ele>
        <time>2010-08-11T13:32:39Z</time>
      </trkpt>
      <trkpt lat="45.13523" lon="2.6475">
        <ele>990</ele>
        <time>2010-08-11T13:32:40Z</time>
      </trkpt>
      <trkpt lat="45.13523" lon="2.6475">
        <ele>990</ele>
        <time>2010-08-11T13:32:43Z</time>
      </trkpt>
      <trkpt lat="45.13059" lon="2.65186">
        <ele>1122</ele>
        <time>2010-08-11T13:45:24Z</time>
      </trkpt>
      <trkpt lat="45.13059" lon="2.65186">
        <ele>1122</ele>
        <time>2010-08-11T13:45:24Z</time>
      </trkpt>
      <trkpt lat="45.13059" lon="2.65186">
        <ele>1122</ele>
        <time>2010-08-11T13:45:25Z</time>
      </trkpt>
      <trkpt lat="45.13059" lon="2.65186">
        <ele>1122</ele>
        <time>2010-08-11T13:45:38Z</time>
      </trkpt>
      <trkpt lat="45.13052" lon="2.65218">
        <ele>1109</ele>
        <time>2010-08-11T13:45:52Z</time>
      </trkpt>
      <trkpt lat="45.13052" lon="2.65218">
        <ele>1109</ele>
        <time>2010-08-11T13:45:54Z</time>
      </trkpt>
      <trkpt lat="45.13058" lon="2.65226">
        <ele>1111</ele>
        <time>2010-08-11T13:46:02Z</time>
      </trkpt>
      <trkpt lat="45.13066" lon="2.65235">
        <ele>1109</ele>
        <time>2010-08-11T13:46:10Z</time>
      </trkpt>
      <trkpt lat="45.13075" lon="2.65244">
        <ele>1106</ele>
        <time>2010-08-11T13:46:19Z</time>
      </trkpt>
      <trkpt lat="45.13075" lon="2.65244">
        <ele>1106</ele>
        <time>2010-08-11T13:46:20Z</time>
      </trkpt>
      <trkpt lat="45.1308" lon="2.65255">
        <ele>1106</ele>
        <time>2010-08-11T13:46:26Z</time>
      </trkpt>
    </trkseg>
  </trk>
</gpx>